Time;durP1;ratioP1;P1;durP2;ratioP2;P2;SDS_P1;SDS_P2;PMS_P1;PMS_P2;Temp;Humidity;BMP_temperature;BMP_pressure;BME280_temperature;BME280_humidity;BME280_pressure;Samples;Min_cycle;Max_cycle;Signal;HPM_P1;HPM_P2
2021/09/02 00:01:34;;;;;;;17.17;13.77;;;15.80;99.90;;;;;;4211003;28;20043;-73
2021/09/02 00:03:34;;;;;;;20.35;15.25;;;15.80;99.90;;;;;;4213096;28;20494;-73
2021/09/02 00:05:35;;;;;;;18.33;15.00;;;15.80;99.90;;;;;;4214110;28;20123;-73
2021/09/02 00:07:36;;;;;;;21.98;13.35;;;15.80;99.90;;;;;;4212663;28;20509;-73
2021/09/02 00:09:36;;;;;;;20.55;13.50;;;15.80;99.90;;;;;;4212626;28;20101;-72
2021/09/02 00:11:37;;;;;;;23.00;13.82;;;15.80;99.90;;;;;;4209482;28;20036;-73
2021/09/02 00:13:37;;;;;;;18.30;14.10;;;15.90;99.90;;;;;;4209650;28;20047;-73
2021/09/02 00:15:38;;;;;;;21.73;13.55;;;15.90;99.90;;;;;;4212603;28;20091;-72
2021/09/02 00:17:39;;;;;;;22.92;13.93;;;15.80;99.90;;;;;;4209361;28;20506;-73
2021/09/02 00:19:39;;;;;;;16.40;12.93;;;15.90;99.90;;;;;;4212956;28;20040;-73
2021/09/02 00:21:40;;;;;;;24.48;14.35;;;15.90;99.90;;;;;;4211561;28;20476;-73
2021/09/02 00:23:41;;;;;;;19.30;14.85;;;15.80;99.90;;;;;;4209625;28;20029;-72
2021/09/02 00:25:41;;;;;;;22.48;15.15;;;15.80;99.90;;;;;;4213083;28;20044;-72
2021/09/02 00:27:42;;;;;;;25.08;14.98;;;15.80;99.90;;;;;;4213013;28;20044;-73
2021/09/02 00:29:43;;;;;;;21.17;14.60;;;15.80;99.90;;;;;;4212683;28;20032;-73
2021/09/02 00:31:43;;;;;;;19.45;14.13;;;15.70;99.90;;;;;;4214205;28;20068;-73
2021/09/02 00:33:44;;;;;;;19.95;15.00;;;15.70;99.90;;;;;;4195794;28;20029;-74
2021/09/02 00:35:46;;;;;;;20.92;14.00;;;15.70;99.90;;;;;;4212432;28;20116;-73
2021/09/02 00:37:46;;;;;;;21.95;14.27;;;15.70;99.90;;;;;;4211603;28;20169;-74
2021/09/02 00:39:47;;;;;;;19.83;13.52;;;15.70;99.90;;;;;;4208829;28;20057;-73
2021/09/02 00:41:48;;;;;;;16.52;13.57;;;15.70;99.90;;;;;;4211531;28;20028;-73
2021/09/02 00:43:49;;;;;;;21.80;14.65;;;15.70;99.90;;;;;;4192275;28;20032;-72
2021/09/02 00:45:49;;;;;;;18.98;14.95;;;15.70;99.90;;;;;;4211780;28;20047;-73
2021/09/02 00:47:51;;;;;;;26.60;14.25;;;15.60;99.90;;;;;;4211240;28;20040;-73
2021/09/02 00:49:54;;;;;;;23.60;15.27;;;15.60;99.90;;;;;;4212158;28;20118;-74
2021/09/02 00:51:55;;;;;;;22.00;14.00;;;15.50;99.90;;;;;;4186614;28;20037;-73
2021/09/02 00:53:56;;;;;;;18.23;15.90;;;15.50;99.90;;;;;;4211411;28;20043;-71
2021/09/02 00:55:57;;;;;;;19.17;14.25;;;15.50;99.90;;;;;;4194470;28;20040;-73
2021/09/02 00:58:00;;;;;;;21.83;15.27;;;15.40;99.90;;;;;;4192670;28;20048;-72
2021/09/02 01:00:11;;;;;;;21.70;14.77;;;15.30;99.90;;;;;;4203244;28;20035;-72
2021/09/02 01:02:12;;;;;;;22.13;15.32;;;15.30;99.90;;;;;;4210104;28;20426;-74
2021/09/02 01:04:12;;;;;;;20.85;14.63;;;15.20;99.90;;;;;;4185894;28;20125;-72
2021/09/02 01:06:15;;;;;;;19.13;15.43;;;15.20;99.90;;;;;;4206886;28;20568;-73
2021/09/02 01:08:16;;;;;;;23.27;17.20;;;15.20;99.90;;;;;;4204555;28;20496;-73
2021/09/02 01:10:17;;;;;;;26.98;16.63;;;15.20;99.90;;;;;;4211494;28;20031;-73
2021/09/02 01:12:48;;;;;;;23.10;16.05;;;15.20;99.90;;;;;;4210457;28;20099;-73
2021/09/02 01:14:49;;;;;;;23.63;16.50;;;15.20;99.90;;;;;;4194672;28;20029;-71
2021/09/02 01:16:50;;;;;;;24.27;16.27;;;15.20;99.90;;;;;;4212536;28;20518;-74
2021/09/02 01:18:51;;;;;;;25.10;17.02;;;15.20;99.90;;;;;;4193254;28;20039;-72
2021/09/02 01:20:51;;;;;;;19.35;16.00;;;15.20;99.90;;;;;;4190588;28;20397;-72
2021/09/02 01:22:57;;;;;;;22.20;17.38;;;15.20;99.90;;;;;;4210032;28;20039;-72
2021/09/02 01:25:00;;;;;;;26.02;17.02;;;15.20;99.90;;;;;;4210619;28;20361;-73
2021/09/02 01:27:01;;;;;;;21.88;17.50;;;15.20;99.90;;;;;;4210627;28;20028;-73
2021/09/02 01:29:03;;;;;;;23.65;17.25;;;15.20;99.90;;;;;;4208116;28;20357;-72
2021/09/02 01:31:03;;;;;;;28.67;18.27;;;15.20;99.90;;;;;;4210531;28;20506;-72
2021/09/02 01:33:05;;;;;;;23.27;17.58;;;15.20;99.90;;;;;;4211954;28;20028;-72
2021/09/02 01:35:08;;;;;;;31.77;18.30;;;15.20;99.90;;;;;;4191256;28;20028;-73
2021/09/02 01:37:09;;;;;;;;;;;15.20;99.90;;;;;;4210817;28;20120;-73
2021/09/02 01:39:17;;;;;;;21.40;16.23;;;15.20;99.90;;;;;;4210841;28;19912;-74
2021/09/02 01:41:18;;;;;;;27.40;17.52;;;15.20;99.90;;;;;;4211061;28;20040;-74
2021/09/02 01:43:18;;;;;;;27.88;17.63;;;15.20;99.90;;;;;;4210845;28;20036;-73
2021/09/02 01:45:19;;;;;;;23.98;16.70;;;15.20;99.90;;;;;;4173459;28;1031936;-73
2021/09/02 01:47:27;;;;;;;23.92;16.35;;;15.20;99.90;;;;;;4210802;28;20024;-73
2021/09/02 01:49:28;;;;;;;21.27;15.75;;;15.20;99.90;;;;;;4207122;28;20035;-73
2021/09/02 01:51:28;;;;;;;21.85;16.35;;;15.20;99.90;;;;;;4202836;28;20484;-74
2021/09/02 01:53:29;;;;;;;23.05;15.93;;;15.20;99.90;;;;;;4211056;28;20028;-74
2021/09/02 01:55:30;;;;;;;24.20;16.15;;;15.20;99.90;;;;;;4203645;28;20033;-74
2021/09/02 01:57:31;;;;;;;24.55;16.02;;;15.20;99.90;;;;;;4193674;28;20159;-74
2021/09/02 01:59:31;;;;;;;17.88;14.52;;;15.20;99.90;;;;;;4210288;28;20047;-74
2021/09/02 02:01:32;;;;;;;24.67;16.05;;;15.20;99.90;;;;;;4209769;28;20375;-74
2021/09/02 02:03:33;;;;;;;22.73;16.85;;;15.20;99.90;;;;;;4212455;28;20028;-73
2021/09/02 02:05:34;;;;;;;21.73;15.73;;;15.20;99.90;;;;;;4211575;28;20070;-74
2021/09/02 02:07:37;;;;;;;21.35;14.70;;;15.20;99.90;;;;;;4202788;28;20067;-74
2021/09/02 02:09:37;;;;;;;24.90;17.05;;;15.20;99.90;;;;;;4193846;28;20040;-74
2021/09/02 02:11:38;;;;;;;20.63;14.65;;;15.20;99.90;;;;;;4205843;28;20115;-73
2021/09/02 02:13:39;;;;;;;22.92;16.48;;;15.10;99.90;;;;;;4192933;28;20033;-73
2021/09/02 02:15:39;;;;;;;23.63;15.43;;;15.10;99.90;;;;;;4203115;28;20376;-74
2021/09/02 02:17:41;;;;;;;25.90;16.65;;;15.10;99.90;;;;;;4210819;28;20032;-72
2021/09/02 02:19:42;;;;;;;19.27;14.25;;;15.10;99.90;;;;;;4211497;28;20123;-73
2021/09/02 02:21:43;;;;;;;22.20;15.18;;;15.10;99.90;;;;;;4209894;28;20077;-73
2021/09/02 02:23:43;;;;;;;22.27;14.98;;;15.10;99.90;;;;;;4207585;28;20036;-73
2021/09/02 02:25:44;;;;;;;22.08;15.23;;;15.10;99.90;;;;;;4209934;28;20056;-74
2021/09/02 02:27:45;;;;;;;26.45;16.45;;;15.10;99.90;;;;;;4202893;28;20407;-74
2021/09/02 02:29:46;;;;;;;20.50;15.35;;;15.10;99.90;;;;;;4211574;28;20063;-74
2021/09/02 02:31:46;;;;;;;15.73;13.70;;;15.10;99.90;;;;;;4208686;28;20039;-74
2021/09/02 02:33:47;;;;;;;17.88;13.88;;;15.10;99.90;;;;;;4211211;28;20068;-74
2021/09/02 02:35:47;;;;;;;20.73;13.80;;;15.00;99.90;;;;;;4210427;28;20032;-74
2021/09/02 02:37:49;;;;;;;23.55;15.20;;;15.00;99.90;;;;;;4192391;28;20066;-73
2021/09/02 02:39:49;;;;;;;22.88;15.35;;;15.00;99.90;;;;;;4199929;28;20045;-74
2021/09/02 02:41:50;;;;;;;25.25;14.65;;;15.00;99.90;;;;;;4192362;28;20040;-74
2021/09/02 02:43:51;;;;;;;21.10;15.23;;;14.90;99.90;;;;;;4211476;28;20036;-74
2021/09/02 02:45:52;;;;;;;21.60;14.07;;;14.90;99.90;;;;;;4210063;28;20029;-74
2021/09/02 02:47:52;;;;;;;26.55;15.93;;;14.90;99.90;;;;;;4204945;28;20035;-74
2021/09/02 02:49:53;;;;;;;19.38;13.98;;;14.90;99.90;;;;;;4193174;28;20340;-74
2021/09/02 02:51:54;;;;;;;17.58;13.63;;;14.90;99.90;;;;;;4211217;28;20381;-74
2021/09/02 02:53:55;;;;;;;16.75;12.55;;;14.80;99.90;;;;;;4193398;28;20047;-74
2021/09/02 02:55:55;;;;;;;21.08;15.38;;;14.80;99.90;;;;;;4185350;28;20033;-73
2021/09/02 02:57:56;;;;;;;19.40;13.60;;;14.80;99.90;;;;;;4210954;28;20399;-73
2021/09/02 02:59:56;;;;;;;17.65;13.63;;;14.90;99.90;;;;;;4186141;28;20504;-73
2021/09/02 03:01:57;;;;;;;16.33;13.38;;;14.90;99.90;;;;;;4192673;28;20037;-73
2021/09/02 03:03:57;;;;;;;13.38;11.80;;;14.90;99.90;;;;;;4192532;28;20467;-72
2021/09/02 03:05:58;;;;;;;17.35;13.65;;;14.90;99.90;;;;;;4210728;28;20028;-73
2021/09/02 03:07:59;;;;;;;19.05;13.27;;;14.90;99.90;;;;;;4210895;28;20542;-72
2021/09/02 03:10:00;;;;;;;15.90;12.95;;;14.90;99.90;;;;;;4193198;28;20036;-73
2021/09/02 03:12:00;;;;;;;19.27;12.18;;;15.00;99.90;;;;;;4205897;28;20032;-73
2021/09/02 03:14:01;;;;;;;17.77;12.45;;;15.00;99.90;;;;;;4209964;28;20032;-73
2021/09/02 03:16:01;;;;;;;17.73;11.27;;;15.10;99.90;;;;;;4202054;28;20043;-73
2021/09/02 03:18:02;;;;;;;17.63;11.82;;;15.10;99.90;;;;;;4211228;28;20107;-73
2021/09/02 03:20:04;;;;;;;16.30;10.52;;;15.10;99.90;;;;;;4204982;28;20372;-73
2021/09/02 03:22:05;;;;;;;18.58;11.45;;;15.10;99.90;;;;;;4210680;28;20020;-73
2021/09/02 03:24:05;;;;;;;18.20;10.82;;;15.10;99.90;;;;;;4191125;28;20045;-73
2021/09/02 03:26:06;;;;;;;18.92;12.95;;;15.10;99.90;;;;;;4190453;28;20522;-73
2021/09/02 03:28:07;;;;;;;21.27;12.80;;;15.10;99.90;;;;;;4202494;28;20391;-73
2021/09/02 03:30:09;;;;;;;17.75;11.77;;;15.10;99.90;;;;;;4211306;28;20043;-73
2021/09/02 03:32:09;;;;;;;17.52;11.45;;;15.00;99.90;;;;;;4193567;28;20503;-73
2021/09/02 03:34:10;;;;;;;18.25;11.65;;;15.00;99.90;;;;;;4209722;28;20103;-73
2021/09/02 03:36:11;;;;;;;17.85;11.75;;;15.00;99.90;;;;;;4192642;28;20499;-74
2021/09/02 03:38:12;;;;;;;14.15;11.80;;;15.00;99.90;;;;;;4210904;28;20035;-73
2021/09/02 03:40:13;;;;;;;16.15;11.07;;;15.00;99.90;;;;;;4186072;28;20036;-74
2021/09/02 03:42:14;;;;;;;17.83;11.93;;;15.00;99.90;;;;;;4210499;28;20039;-73
2021/09/02 03:44:15;;;;;;;16.90;11.98;;;15.00;99.90;;;;;;4211355;28;20560;-73
2021/09/02 03:46:16;;;;;;;16.58;12.18;;;15.00;99.90;;;;;;4194793;28;20040;-73
2021/09/02 03:48:17;;;;;;;18.48;11.73;;;15.00;99.90;;;;;;4205376;28;20043;-73
2021/09/02 03:50:18;;;;;;;18.15;12.13;;;15.00;99.90;;;;;;4212267;28;20064;-72
2021/09/02 03:52:19;;;;;;;16.38;11.68;;;15.00;99.90;;;;;;4209672;28;20381;-73
2021/09/02 03:54:19;;;;;;;16.38;12.48;;;15.00;99.90;;;;;;4193743;28;20027;-72
2021/09/02 03:56:20;;;;;;;18.85;12.95;;;15.00;99.90;;;;;;4188174;28;20726;-72
2021/09/02 03:58:21;;;;;;;18.38;13.90;;;15.00;99.90;;;;;;4195356;28;20079;-72
2021/09/02 04:00:21;;;;;;;17.75;13.20;;;15.00;99.90;;;;;;4213878;28;20029;-72
2021/09/02 04:02:22;;;;;;;15.93;12.18;;;15.00;99.90;;;;;;4211339;28;20543;-72
2021/09/02 04:04:23;;;;;;;16.80;12.80;;;14.90;99.90;;;;;;4188722;28;20142;-73
2021/09/02 04:06:23;;;;;;;18.13;12.50;;;14.90;99.90;;;;;;4211273;28;20035;-73
2021/09/02 04:08:24;;;;;;;19.58;13.27;;;14.90;99.90;;;;;;4210120;28;20081;-73
2021/09/02 04:10:25;;;;;;;16.55;12.43;;;14.90;99.90;;;;;;4196335;28;20436;-73
2021/09/02 04:12:25;;;;;;;17.02;12.68;;;14.80;99.90;;;;;;4193907;28;20043;-73
2021/09/02 04:14:26;;;;;;;18.92;13.13;;;14.80;99.90;;;;;;4212060;28;20042;-72
2021/09/02 04:16:26;;;;;;;20.08;13.10;;;14.80;99.90;;;;;;4192317;28;20040;-73
2021/09/02 04:18:27;;;;;;;24.17;13.52;;;14.80;99.90;;;;;;4195223;28;20032;-74
2021/09/02 04:20:28;;;;;;;21.50;15.48;;;14.80;99.90;;;;;;4210460;28;20032;-73
2021/09/02 04:22:28;;;;;;;19.60;14.05;;;14.80;99.90;;;;;;4196387;28;20029;-73
2021/09/02 04:24:29;;;;;;;19.42;12.38;;;14.80;99.90;;;;;;4206513;28;20035;-73
2021/09/02 04:26:29;;;;;;;15.85;13.15;;;14.80;99.90;;;;;;4193657;28;20473;-74
2021/09/02 04:28:30;;;;;;;22.17;13.73;;;14.80;99.90;;;;;;4207675;28;20085;-73
2021/09/02 04:30:31;;;;;;;20.08;14.05;;;14.80;99.90;;;;;;4192930;28;20036;-73
2021/09/02 04:32:32;;;;;;;20.40;12.70;;;14.80;99.90;;;;;;4212907;28;20521;-73
2021/09/02 04:34:33;;;;;;;20.33;14.80;;;14.80;99.90;;;;;;4212528;28;20040;-74
2021/09/02 04:36:33;;;;;;;17.00;12.88;;;14.80;99.90;;;;;;4211191;28;21608;-73
2021/09/02 04:38:34;;;;;;;21.08;14.43;;;14.80;99.90;;;;;;4208974;28;20039;-73
2021/09/02 04:40:35;;;;;;;16.05;13.35;;;14.80;99.90;;;;;;4212453;28;20503;-73
2021/09/02 04:42:36;;;;;;;22.95;15.43;;;14.80;99.90;;;;;;4193032;28;20041;-73
2021/09/02 04:44:37;;;;;;;19.52;14.00;;;14.80;99.90;;;;;;4210667;28;20165;-73
2021/09/02 04:46:38;;;;;;;21.10;14.30;;;14.80;99.90;;;;;;4212749;28;20047;-72
2021/09/02 04:48:38;;;;;;;22.75;14.95;;;14.90;99.90;;;;;;4192720;28;20036;-73
2021/09/02 04:50:41;;;;;;;23.80;14.07;;;14.80;99.90;;;;;;4189804;28;20072;-73
2021/09/02 04:52:42;;;;;;;19.55;13.70;;;14.80;99.90;;;;;;4207204;28;20100;-73
2021/09/02 04:54:42;;;;;;;19.90;14.23;;;14.80;99.90;;;;;;4209384;28;20023;-73
2021/09/02 04:56:43;;;;;;;21.25;14.60;;;14.80;99.90;;;;;;4213686;28;20044;-73
2021/09/02 04:58:44;;;;;;;17.10;13.35;;;14.80;99.90;;;;;;4211777;28;20028;-73
2021/09/02 05:00:44;;;;;;;21.98;14.73;;;14.90;99.90;;;;;;4194167;28;20365;-73
2021/09/02 05:02:45;;;;;;;17.05;12.38;;;14.90;99.90;;;;;;4209208;28;20415;-73
2021/09/02 05:04:46;;;;;;;19.42;12.15;;;14.90;99.90;;;;;;4192880;28;20577;-73
2021/09/02 05:06:46;;;;;;;24.92;14.20;;;14.90;99.90;;;;;;4209727;28;20040;-73
2021/09/02 05:08:47;;;;;;;22.23;14.90;;;14.90;99.90;;;;;;4213756;28;20164;-73
2021/09/02 05:10:51;;;;;;;20.52;13.38;;;15.00;99.90;;;;;;4210750;28;20033;-73
2021/09/02 05:12:52;;;;;;;21.35;13.63;;;15.00;99.90;;;;;;4212720;28;20024;-74
2021/09/02 05:14:53;;;;;;;21.38;14.27;;;15.00;99.90;;;;;;4194238;28;20035;-73
2021/09/02 05:16:53;;;;;;;20.13;13.52;;;15.00;99.90;;;;;;4210125;28;20487;-74
2021/09/02 05:18:54;;;;;;;19.33;13.23;;;15.00;99.90;;;;;;4192184;28;20043;-73
2021/09/02 05:20:54;;;;;;;22.55;13.77;;;15.00;99.90;;;;;;4206639;28;20036;-73
2021/09/02 05:22:55;;;;;;;20.10;14.05;;;15.10;99.90;;;;;;4210864;28;20123;-73
2021/09/02 05:24:56;;;;;;;19.00;13.77;;;15.10;99.90;;;;;;4212938;28;20059;-73
2021/09/02 05:26:56;;;;;;;21.42;13.50;;;15.10;99.90;;;;;;4211423;28;20124;-73
2021/09/02 05:28:57;;;;;;;22.90;14.18;;;15.10;99.90;;;;;;4202800;28;20031;-74
2021/09/02 05:30:58;;;;;;;26.80;14.70;;;15.10;99.90;;;;;;4209002;28;20070;-73
2021/09/02 05:32:58;;;;;;;23.48;14.27;;;15.20;99.90;;;;;;4204356;28;20061;-72
2021/09/02 05:34:59;;;;;;;20.52;13.95;;;15.20;99.90;;;;;;4210034;28;20474;-73
2021/09/02 05:37:00;;;;;;;24.23;14.80;;;15.20;99.90;;;;;;4194091;28;20040;-73
2021/09/02 05:39:02;;;;;;;24.10;13.70;;;15.30;99.90;;;;;;4194388;28;20107;-73
2021/09/02 05:41:03;;;;;;;20.40;14.52;;;15.30;99.90;;;;;;4194711;28;20525;-73
2021/09/02 05:43:03;;;;;;;20.95;13.73;;;15.30;99.90;;;;;;4210416;28;20028;-73
2021/09/02 05:45:05;;;;;;;18.23;14.35;;;15.40;99.90;;;;;;4217185;28;20044;-73
2021/09/02 05:47:06;;;;;;;19.42;13.32;;;15.40;99.90;;;;;;4209473;28;20108;-74
2021/09/02 05:49:06;;;;;;;24.58;14.63;;;15.40;99.90;;;;;;4192565;28;20029;-73
2021/09/02 05:51:07;;;;;;;14.48;12.90;;;15.40;99.90;;;;;;4209792;28;20032;-73
2021/09/02 05:53:09;;;;;;;17.55;14.10;;;15.40;99.90;;;;;;4208192;28;20036;-73
2021/09/02 05:55:09;;;;;;;24.50;14.52;;;15.50;99.90;;;;;;4209347;28;20039;-73
2021/09/02 05:57:10;;;;;;;20.33;14.07;;;15.50;99.90;;;;;;4212227;28;20032;-73
2021/09/02 05:59:11;;;;;;;19.33;13.93;;;15.60;99.90;;;;;;4209502;28;20032;-73
2021/09/02 06:01:14;;;;;;;16.83;13.68;;;15.60;99.90;;;;;;4211965;28;20759;-73
2021/09/02 06:03:15;;;;;;;20.55;12.70;;;15.60;99.90;;;;;;4209267;28;20115;-73
2021/09/02 06:05:16;;;;;;;14.93;12.93;;;15.70;99.90;;;;;;4194343;28;20046;-73
2021/09/02 06:07:16;;;;;;;16.50;13.50;;;15.80;99.90;;;;;;4210173;28;20401;-73
2021/09/02 06:09:17;;;;;;;19.00;12.35;;;15.80;99.90;;;;;;4206641;28;20403;-74
2021/09/02 06:11:17;;;;;;;24.50;13.35;;;15.90;99.90;;;;;;4194348;28;20029;-72
2021/09/02 06:13:18;;;;;;;16.80;11.73;;;15.90;99.90;;;;;;4212472;28;20379;-71
2021/09/02 06:15:18;;;;;;;16.17;12.00;;;16.00;99.90;;;;;;4209272;28;20021;-73
2021/09/02 06:17:19;;;;;;;16.40;12.40;;;16.00;99.90;;;;;;4204492;28;20032;-72
2021/09/02 06:19:19;;;;;;;19.45;13.25;;;16.10;99.90;;;;;;4209763;28;20038;-73
2021/09/02 06:21:20;;;;;;;17.48;12.80;;;16.10;99.90;;;;;;4210252;28;20233;-73
2021/09/02 06:23:21;;;;;;;16.50;13.35;;;16.20;99.90;;;;;;4209860;28;20050;-73
2021/09/02 06:25:22;;;;;;;19.95;12.32;;;16.20;99.90;;;;;;4207484;28;20043;-72
2021/09/02 06:27:22;;;;;;;14.85;11.93;;;16.30;99.90;;;;;;4190838;28;20115;-73
2021/09/02 06:29:23;;;;;;;20.25;13.13;;;16.30;99.90;;;;;;4210876;28;20487;-73
2021/09/02 06:31:23;;;;;;;18.20;11.90;;;16.40;99.90;;;;;;4207388;28;20036;-72
2021/09/02 06:33:24;;;;;;;22.33;12.05;;;16.30;99.90;;;;;;4208816;28;20064;-73
2021/09/02 06:35:25;;;;;;;19.55;12.80;;;16.30;99.90;;;;;;4209426;28;20035;-73
2021/09/02 06:37:25;;;;;;;20.38;12.70;;;16.40;99.90;;;;;;4211779;28;20540;-73
2021/09/02 06:39:26;;;;;;;20.38;14.00;;;16.50;99.90;;;;;;4209379;28;20043;-72
2021/09/02 06:41:26;;;;;;;18.02;12.07;;;16.60;99.90;;;;;;4206490;28;20036;-73
2021/09/02 06:43:27;;;;;;;24.73;12.45;;;16.70;99.90;;;;;;4190014;28;20033;-73
2021/09/02 06:45:27;;;;;;;18.80;12.13;;;16.70;99.90;;;;;;4209379;28;20048;-73
2021/09/02 06:47:28;;;;;;;19.95;11.80;;;16.70;99.90;;;;;;4208660;28;20392;-74
2021/09/02 06:49:28;;;;;;;19.58;11.95;;;16.80;99.90;;;;;;4193419;28;20040;-73
2021/09/02 06:51:29;;;;;;;17.58;11.38;;;16.80;99.90;;;;;;4207737;28;20456;-73
2021/09/02 06:53:29;;;;;;;17.35;10.90;;;16.90;99.90;;;;;;4211993;28;20420;-74
2021/09/02 06:55:30;;;;;;;14.38;9.27;;;16.90;99.90;;;;;;4192492;28;20486;-74
2021/09/02 06:57:30;;;;;;;16.50;9.90;;;16.90;99.90;;;;;;4193502;28;20074;-71
2021/09/02 06:59:31;;;;;;;16.95;10.05;;;16.90;99.90;;;;;;4209783;28;20032;-74
2021/09/02 07:01:31;;;;;;;16.17;9.77;;;17.00;99.90;;;;;;4209316;28;20036;-72
2021/09/02 07:03:32;;;;;;;12.32;8.93;;;17.00;99.90;;;;;;4207828;28;20047;-73
2021/09/02 07:05:33;;;;;;;14.18;8.35;;;17.00;99.90;;;;;;4212759;28;20433;-73
2021/09/02 07:07:34;;;;;;;10.05;7.70;;;17.10;99.90;;;;;;4208041;28;20050;-73
2021/09/02 07:09:34;;;;;;;14.02;8.73;;;17.20;99.90;;;;;;4194298;28;20024;-72
2021/09/02 07:11:35;;;;;;;19.77;8.85;;;17.30;99.90;;;;;;4208742;28;20043;-73
2021/09/02 07:13:36;;;;;;;12.75;9.00;;;17.50;99.90;;;;;;4201836;28;20475;-73
2021/09/02 07:15:36;;;;;;;13.18;8.27;;;17.60;99.90;;;;;;4187999;28;20071;-73
2021/09/02 07:17:37;;;;;;;14.02;8.70;;;17.80;99.90;;;;;;4197471;28;20055;-72
2021/09/02 07:19:38;;;;;;;12.50;8.20;;;17.70;99.90;;;;;;4211168;28;20039;-72
2021/09/02 07:21:38;;;;;;;19.17;7.88;;;17.80;99.90;;;;;;4199169;28;20051;-73
2021/09/02 07:23:39;;;;;;;11.52;8.68;;;17.70;99.90;;;;;;4209062;28;20032;-73
2021/09/02 07:25:40;;;;;;;16.20;8.77;;;17.80;99.90;;;;;;4206007;28;20086;-73
2021/09/02 07:27:40;;;;;;;13.02;8.27;;;17.90;99.90;;;;;;4207287;28;20036;-73
2021/09/02 07:29:42;;;;;;;11.63;8.50;;;17.90;99.90;;;;;;4185624;28;20033;-73
2021/09/02 07:31:43;;;;;;;13.60;7.68;;;17.90;99.90;;;;;;4208696;28;20362;-74
2021/09/02 07:33:44;;;;;;;11.48;7.30;;;17.90;99.90;;;;;;4206873;28;20045;-74
2021/09/02 07:35:44;;;;;;;13.98;9.25;;;18.10;99.90;;;;;;4197696;28;20373;-73
2021/09/02 07:37:45;;;;;;;13.20;7.85;;;18.10;99.90;;;;;;4184920;28;20031;-73
2021/09/02 07:39:45;;;;;;;10.95;7.75;;;18.20;99.90;;;;;;4209058;28;20044;-73
2021/09/02 07:41:46;;;;;;;13.13;7.55;;;18.20;99.90;;;;;;4186389;28;20067;-73
2021/09/02 07:43:47;;;;;;;11.82;7.35;;;18.30;99.90;;;;;;4209877;28;20456;-73
2021/09/02 07:45:48;;;;;;;12.40;6.63;;;18.50;99.90;;;;;;4201809;28;20040;-73
2021/09/02 07:47:48;;;;;;;12.90;8.32;;;18.70;99.90;;;;;;4208010;28;20421;-72
2021/09/02 07:49:49;;;;;;;11.75;8.00;;;18.90;99.90;;;;;;4201725;28;20040;-73
2021/09/02 07:51:50;;;;;;;14.23;8.20;;;19.20;99.90;;;;;;4196387;28;20110;-73
2021/09/02 07:53:50;;;;;;;12.07;8.18;;;19.30;99.90;;;;;;4200765;28;20136;-73
2021/09/02 07:55:51;;;;;;;11.50;7.55;;;19.40;99.90;;;;;;4193486;28;20036;-73
2021/09/02 07:57:52;;;;;;;13.63;7.43;;;19.50;99.90;;;;;;4202417;28;20031;-73
2021/09/02 07:59:52;;;;;;;10.57;7.35;;;19.60;99.90;;;;;;4209283;28;20040;-73
2021/09/02 08:01:53;;;;;;;13.32;8.05;;;19.80;99.90;;;;;;4184231;28;20099;-74
2021/09/02 08:03:53;;;;;;;12.60;7.22;;;19.80;99.90;;;;;;4208221;28;20043;-73
2021/09/02 08:05:54;;;;;;;11.05;8.25;;;19.70;99.90;;;;;;4183451;28;20037;-73
2021/09/02 08:07:55;;;;;;;11.75;7.97;;;19.60;99.90;;;;;;4194939;28;20040;-72
2021/09/02 08:09:55;;;;;;;14.82;7.95;;;19.60;99.90;;;;;;4214090;28;20502;-73
2021/09/02 08:11:56;;;;;;;12.77;8.02;;;19.50;99.90;;;;;;4212709;28;20032;-73
2021/09/02 08:13:58;;;;;;;8.75;7.20;;;19.40;99.90;;;;;;4192108;28;20380;-73
2021/09/02 08:15:58;;;;;;;10.35;7.53;;;19.30;99.90;;;;;;4194902;28;20032;-73
2021/09/02 08:17:59;;;;;;;14.68;7.50;;;19.20;99.90;;;;;;4208919;28;20114;-73
2021/09/02 08:20:00;;;;;;;11.90;7.00;;;19.10;99.90;;;;;;4211675;28;20120;-72
2021/09/02 08:22:01;;;;;;;8.25;6.93;;;19.00;99.90;;;;;;4214725;28;20032;-73
2021/09/02 08:24:01;;;;;;;14.20;7.53;;;19.00;99.90;;;;;;4211849;28;20510;-73
2021/09/02 08:26:02;;;;;;;9.48;6.97;;;19.00;99.90;;;;;;4214233;28;20131;-72
2021/09/02 08:28:03;;;;;;;10.82;7.50;;;19.10;99.90;;;;;;4196357;28;20052;-73
2021/09/02 08:30:04;;;;;;;9.10;7.03;;;19.10;99.90;;;;;;4214325;28;20514;-73
2021/09/02 08:32:05;;;;;;;11.68;8.35;;;19.30;99.90;;;;;;4212388;28;20039;-72
2021/09/02 08:34:06;;;;;;;14.07;7.93;;;19.40;99.90;;;;;;4214180;28;20029;-73
2021/09/02 08:36:07;;;;;;;10.57;7.80;;;19.60;99.90;;;;;;4212254;28;20047;-73
2021/09/02 08:38:09;;;;;;;11.85;7.82;;;19.70;99.90;;;;;;4195521;28;20033;-73
2021/09/02 08:40:10;;;;;;;13.98;8.60;;;19.70;99.90;;;;;;4195676;28;20056;-73
2021/09/02 08:42:16;;;;;;;9.55;7.28;;;19.80;99.90;;;;;;4214357;28;20028;-74
2021/09/02 08:44:16;;;;;;;12.27;6.80;;;19.90;99.90;;;;;;4211262;28;20047;-72
2021/09/02 08:46:17;;;;;;;13.60;7.07;;;19.90;99.90;;;;;;4195861;28;20113;-72
2021/09/02 08:48:18;;;;;;;12.82;7.68;;;19.80;99.90;;;;;;4212365;28;20445;-72
2021/09/02 08:50:23;;;;;;;7.78;6.47;;;19.70;99.90;;;;;;4197350;28;20032;-72
2021/09/02 08:52:27;;;;;;;11.93;6.70;;;19.70;99.90;;;;;;4195072;28;20028;-72
2021/09/02 08:54:28;;;;;;;10.43;7.60;;;19.70;99.90;;;;;;4212652;28;20384;-72
2021/09/02 08:56:30;;;;;;;10.68;7.03;;;19.50;99.90;;;;;;4211232;28;20036;-72
2021/09/02 08:58:32;;;;;;;11.20;6.72;;;19.50;99.90;;;;;;4213798;28;20052;-72
2021/09/02 09:00:33;;;;;;;12.63;7.00;;;19.60;99.90;;;;;;4212078;28;20115;-72
2021/09/02 09:02:34;;;;;;;9.20;6.50;;;19.60;99.90;;;;;;4196968;28;20047;-72
2021/09/02 09:04:35;;;;;;;10.13;7.47;;;19.70;99.90;;;;;;4212070;28;20047;-73
2021/09/02 09:06:35;;;;;;;11.10;6.68;;;19.80;99.90;;;;;;4211906;28;20454;-72
2021/09/02 09:08:38;;;;;;;10.65;6.88;;;20.00;99.90;;;;;;4211677;28;20459;-73
2021/09/02 09:10:40;;;;;;;;;;;20.10;99.90;;;;;;4195782;28;20480;-73
2021/09/02 09:12:51;;;;;;;10.70;6.57;;;20.00;99.90;;;;;;4212185;28;19957;-73
2021/09/02 09:14:55;;;;;;;11.32;6.63;;;20.00;99.90;;;;;;4213616;28;20150;-73
2021/09/02 09:16:58;;;;;;;17.45;7.60;;;19.90;99.90;;;;;;4211299;28;20392;-74
2021/09/02 09:18:59;;;;;;;11.25;7.22;;;19.90;99.90;;;;;;4213034;28;20397;-74
2021/09/02 09:21:17;;;;;;;10.18;7.10;;;20.00;99.90;;;;;;4212039;28;20036;-73
2021/09/02 09:23:17;;;;;;;8.75;6.45;;;20.30;99.90;;;;;;4212209;28;20057;-74
2021/09/02 09:25:18;;;;;;;12.57;7.43;;;20.30;99.90;;;;;;4212387;28;20039;-73
2021/09/02 09:27:34;;;;;;;11.23;7.30;;;20.30;99.90;;;;;;4211453;28;20055;-74
2021/09/02 09:29:35;;;;;;;12.90;7.18;;;20.40;99.90;;;;;;4212332;28;20103;-73
2021/09/02 09:31:36;;;;;;;12.88;8.40;;;20.50;99.90;;;;;;4211356;28;20058;-74
2021/09/02 09:33:54;;;;;;;10.68;7.30;;;20.50;99.90;;;;;;4212361;28;20531;-74
2021/09/02 09:35:56;;;;;;;11.25;7.22;;;20.50;99.90;;;;;;4209790;28;20335;-73
2021/09/02 09:38:08;;;;;;;10.80;6.90;;;20.50;99.90;;;;;;4212306;28;20510;-73
2021/09/02 09:40:23;;;;;;;10.85;6.50;;;20.80;99.90;;;;;;4209844;28;20345;-73
2021/09/02 09:42:24;;;;;;;11.35;7.25;;;21.20;99.90;;;;;;4211423;28;20099;-73
2021/09/02 09:44:26;;;;;;;8.43;6.93;;;21.50;99.90;;;;;;4193917;28;20048;-72
2021/09/02 09:46:27;;;;;;;8.60;6.50;;;21.70;99.90;;;;;;4212762;28;20024;-73
2021/09/02 09:48:38;;;;;;;8.95;5.93;;;21.90;99.90;;;;;;4190226;28;20033;-73
2021/09/02 09:50:39;;;;;;;11.77;7.75;;;22.00;99.90;;;;;;4210697;28;20107;-73
2021/09/02 09:52:42;;;;;;;10.05;7.75;;;21.90;99.90;;;;;;4189033;28;20067;-72
2021/09/02 09:54:43;;;;;;;11.35;7.72;;;21.80;99.90;;;;;;4213268;28;20046;-72
2021/09/02 09:56:46;;;;;;;10.00;6.65;;;21.90;99.90;;;;;;4209914;28;20466;-73
2021/09/02 09:58:48;;;;;;;10.85;7.15;;;22.00;99.90;;;;;;4194835;28;20040;-73
2021/09/02 10:00:55;;;;;;;18.90;10.23;;;21.90;99.90;;;;;;4211251;28;20057;-73
2021/09/02 10:02:56;;;;;;;10.52;7.72;;;21.90;99.90;;;;;;4212847;28;20031;-73
2021/09/02 10:04:57;;;;;;;11.13;7.30;;;21.90;99.90;;;;;;4211610;28;20036;-73
2021/09/02 10:06:58;;;;;;;11.60;7.13;;;22.10;99.90;;;;;;4194564;28;20126;-74
2021/09/02 10:08:59;;;;;;;12.25;8.43;;;22.30;99.90;;;;;;4211081;28;20028;-73
2021/09/02 10:11:02;;;;;;;11.93;7.60;;;22.40;99.90;;;;;;4211380;28;20506;-73
2021/09/02 10:13:03;;;;;;;14.57;8.68;;;22.50;99.90;;;;;;4211652;28;20028;-72
2021/09/02 10:15:18;;;;;;;12.05;7.18;;;22.80;99.90;;;;;;4212479;28;20020;-72
2021/09/02 10:17:19;;;;;;;11.70;8.27;;;23.00;99.90;;;;;;4194190;28;20400;-73
2021/09/02 10:19:20;;;;;;;13.48;8.07;;;23.20;99.90;;;;;;4210513;28;20012;-73